Share

Auburn, AL

11:20 AM CDT on April 23, 2014 (GMT -0500)
KALAUBUR4 Elev 646 ft | 32.58 °N, 85.45 °W | Change Station

Current weather conditions updated 11 minutes ago

Clear
Clear
76.5 °F
Feels Like 78 °F
N
0.0
Wind Variable Wind from NE
Sunrise 6:03 AM
Sunset 7:17 PM
Moon Waning Crescent

Today is forecast to be Warmer than yesterday.

Pressure 30.00 in
Visibility 10.0 miles
Clouds Clear
Heat Index 78 °F
Dew Point 61 °F
Humidity 59%
Rainfall 0.00 in
Snow Depth Not available.
UV 9 out of 16
Pollen 8.20 out of 12
Air Quality Not available.
Flu Activity Sporadic
METAR KALX 231555Z AUTO 36007KT 320V050 10SM CLR 24/08 A3000 RMK AO2 T02420079

More Conditions Fewer Conditions

Pressure 30.00 in
Visibility 10.0 miles
Clouds Clear
Heat Index 78 °F
Dew Point 61 °F
Humidity 59%
Rainfall 0.00 in
Snow Depth Not available.
UV 9 out of 16
Pollen 8.20 out of 12
Air Quality Not available.
Flu Activity Sporadic
METAR KALX 231555Z AUTO 36007KT 320V050 10SM CLR 24/08 A3000 RMK AO2 T02420079

More Conditions Fewer Conditions

10-Day Weather Forecast

Almanac

Astronomy

Apr. 23, 2014 Rise Set
Actual Time 6:03 AM CDT 7:17 PM CDT
Civil Twilight 5:37 AM CDT 7:43 PM CDT
Nautical Twilight 5:07 AM CDT 8:14 PM CDT
Astronomical Twilight 4:35 AM CDT 8:45 PM CDT
Moon 2:14 AM CDT 1:44 PM CDT
Length of Visible Light 14h 05m
Length of Day
13h 14m
Tomorrow will be 1m 48s longer.
Waning Crescent, 35% of the Moon is Illuminated
Today
Waning Crescent
Apr 29
New
May 6
First Quarter
May 14
Full
May 21
Last Quarter

Today's Extremes

State Highs State Lows

Community

  • spring flowers
    spring flowers
  • Earth Day Spectrum Ove' Blue
    Earth Day Spectrum Ove' Blue
  • BARN B&W
    BARN B&W
  • April Sunset
    April Sunset
  • Waiting..
    Waiting..

WunderPhotos

Upload Photos

1,704,322 photos uploaded!

WunderBlogs® & News

Nearby

Snow Depth

Station Depth Elevation
No new snow has been reported.

Coastal Water Temperatures

Place Temperature
No Stations Reporting

Earthquake Activity

City Distance Mag. Time & Date
No recent earthquake activity has been reported nearby.
Minimum magnitude displayed is 2.5.

Nearby Weather Stations

Station Location Temp. Heat Index Dew Point Humidity Wind Precip. Elev Updated Type
Auburn, AL 76.5 °F 78 °F 61 °F 59% NE  at  0.0 mph - / hr 646 ft 11:09 AM CDT Normal
RAWS TUSKEGEE AL, Auburn, AL 74 °F 77 °F 57 °F 55% North  at  4 mph 0.00 in / hr 508 ft 10:26 AM CDT MADIS
Opelika, AL - Highland Ave., Opelika, AL 73.9 °F 77 °F 52 °F 47% NNE  at  4.3 mph 0.00 in / hr 856 ft 11:20 AM CDT Rapid Fire
Opelika, Opelika, AL 73.6 °F 77 °F 57 °F 56% NE  at  4.0 mph 0.00 in / hr 785 ft 11:20 AM CDT Rapid Fire

Show More Stations Show Fewer Stations

What do you think?

We're not finished. Please let us know what you like, what you don't like, and what you are still missing.